Merriam, Kansas
Current Conditions -  °F | °C
As of 12:54 AM on Saturday 25 Oct 2014 (Local Time) from KMKC Reporting Station
Clear Clear  
Wind Chill: 64°   Ceiling: Unl
Heat Index: 64°   Visibility: 9mi
Dew Point: 60°   Wind: 8mph
Humidity: 87%   Direction: 210°SSW
Pressure: 29.99"   Gusts: NA
Location:  38.993°N, 94.6774°W
Report Text: KMKC 250554Z AUTO 21007KT 9SM CLR 18/16 A2999 RMK AO2 SLP148 T01780156 10228 20172 402500128 50003
Loading
Personal Weather Stations






























Interactive Weather Map New forecast layout! Learn more

10-Day Weather Forecast

Advertisements
Track Severe Weather on mobile